createdAt,value
2022-07-27T00:00:48.947Z,19.21
2022-07-27T00:03:16.125Z,19.19
2022-07-27T00:05:43.078Z,19.21
2022-07-27T00:08:09.938Z,19.20
2022-07-27T00:10:37.697Z,19.22
2022-07-27T00:13:06.346Z,19.21
2022-07-27T00:15:34.757Z,19.19
2022-07-27T00:18:01.659Z,19.16
2022-07-27T00:20:29.547Z,19.15
2022-07-27T00:22:56.622Z,19.12
2022-07-27T00:25:24.880Z,19.10
2022-07-27T00:27:51.753Z,19.08
2022-07-27T00:30:18.637Z,19.04
2022-07-27T00:32:46.412Z,19.03
2022-07-27T00:35:14.120Z,19.02
2022-07-27T00:37:41.176Z,19.01
2022-07-27T00:40:09.096Z,19.00
2022-07-27T00:42:36.627Z,18.99
2022-07-27T00:45:05.476Z,18.98
2022-07-27T00:47:32.718Z,18.96
2022-07-27T00:50:00.022Z,18.93
2022-07-27T00:52:28.718Z,18.91
2022-07-27T00:54:55.915Z,18.88
2022-07-27T00:57:23.920Z,18.85
2022-07-27T00:59:50.931Z,18.82
2022-07-27T01:02:19.364Z,18.82
2022-07-27T01:04:49.743Z,18.85
2022-07-27T01:07:21.796Z,18.90
2022-07-27T01:09:56.838Z,18.91
2022-07-27T01:12:26.985Z,18.90
2022-07-27T01:14:55.059Z,18.86
2022-07-27T01:17:21.929Z,18.86
2022-07-27T01:19:48.905Z,18.89
2022-07-27T01:22:15.877Z,18.86
2022-07-27T01:24:42.711Z,18.88
2022-07-27T01:27:09.652Z,18.88
2022-07-27T01:29:37.831Z,18.89
2022-07-27T01:32:04.999Z,18.89
2022-07-27T01:34:35.225Z,18.89
2022-07-27T01:37:03.031Z,18.87
2022-07-27T01:39:30.577Z,18.84
2022-07-27T01:41:57.878Z,18.82
2022-07-27T01:44:24.990Z,18.82
2022-07-27T01:46:51.958Z,18.82
2022-07-27T01:49:19.137Z,18.83
2022-07-27T01:51:46.131Z,18.83
2022-07-27T01:54:13.065Z,18.85
2022-07-27T01:56:40.030Z,18.88
2022-07-27T01:59:06.924Z,18.87
2022-07-27T02:01:33.832Z,18.86
2022-07-27T02:04:00.710Z,18.87
2022-07-27T02:06:27.501Z,18.88
2022-07-27T02:08:54.382Z,18.90
2022-07-27T02:11:39.607Z,18.89
2022-07-27T02:14:06.471Z,18.86
2022-07-27T02:16:33.382Z,18.85
2022-07-27T02:19:00.602Z,18.82
2022-07-27T02:21:31.673Z,18.79
2022-07-27T02:23:58.537Z,18.76
2022-07-27T02:26:25.365Z,18.76
2022-07-27T02:28:52.174Z,18.78
2022-07-27T02:31:19.024Z,18.82
2022-07-27T02:33:45.878Z,18.84
2022-07-27T02:36:12.811Z,18.84
2022-07-27T02:38:40.202Z,18.84
2022-07-27T02:41:07.019Z,18.82
2022-07-27T02:43:33.892Z,18.78
2022-07-27T02:46:00.782Z,18.77
2022-07-27T02:48:27.753Z,18.76
2022-07-27T02:50:54.612Z,18.75
2022-07-27T02:53:21.512Z,18.72
2022-07-27T02:55:48.375Z,18.74
2022-07-27T02:58:15.305Z,18.75
2022-07-27T03:00:42.208Z,18.76
2022-07-27T03:03:09.026Z,18.76
2022-07-27T03:05:35.898Z,18.77
2022-07-27T03:08:02.936Z,18.76
2022-07-27T03:10:29.925Z,18.74
2022-07-27T03:12:57.143Z,18.77
2022-07-27T03:15:24.701Z,18.76
2022-07-27T03:17:53.130Z,18.76
2022-07-27T03:20:19.947Z,18.77
2022-07-27T03:22:46.778Z,18.78
2022-07-27T03:25:13.677Z,18.82
2022-07-27T03:27:40.551Z,18.82
2022-07-27T03:30:08.280Z,18.81
2022-07-27T03:32:35.150Z,18.82
2022-07-27T03:35:02.078Z,18.84
2022-07-27T03:37:28.916Z,18.84
2022-07-27T03:39:55.729Z,18.86
2022-07-27T03:42:22.566Z,18.86
2022-07-27T03:44:49.380Z,18.85
2022-07-27T03:47:16.219Z,18.82
2022-07-27T03:49:43.112Z,18.83
2022-07-27T03:52:15.674Z,18.84
2022-07-27T03:54:44.512Z,18.84
2022-07-27T03:57:11.310Z,18.82
2022-07-27T03:59:38.299Z,18.82
2022-07-27T04:02:06.504Z,18.82
2022-07-27T04:04:33.620Z,18.81
2022-07-27T04:07:00.790Z,18.80
2022-07-27T04:09:28.851Z,18.77
2022-07-27T04:11:58.997Z,18.78
2022-07-27T04:14:26.693Z,18.79
2022-07-27T04:16:53.862Z,18.78
2022-07-27T04:19:21.665Z,18.77
2022-07-27T04:21:49.214Z,18.78
2022-07-27T04:24:16.462Z,18.79
2022-07-27T04:26:44.327Z,18.77
2022-07-27T04:29:11.730Z,18.76
2022-07-27T04:31:39.456Z,18.73
2022-07-27T04:34:09.195Z,18.72
2022-07-27T04:36:38.975Z,18.68
2022-07-27T04:39:06.747Z,18.64
2022-07-27T04:41:33.832Z,18.63
2022-07-27T04:44:01.170Z,18.60
2022-07-27T04:46:32.540Z,18.62
2022-07-27T04:48:59.571Z,18.64
2022-07-27T04:51:29.992Z,18.66
2022-07-27T04:54:00.093Z,18.67
2022-07-27T04:56:27.482Z,18.67
2022-07-27T04:58:55.952Z,18.67
2022-07-27T05:01:23.608Z,18.67
2022-07-27T05:03:50.913Z,18.67
2022-07-27T05:06:18.415Z,18.69
2022-07-27T05:08:45.274Z,18.72
2022-07-27T05:11:12.636Z,18.73
2022-07-27T05:13:42.815Z,18.74
2022-07-27T05:16:29.130Z,18.72
2022-07-27T05:18:57.945Z,18.70
2022-07-27T05:21:25.433Z,18.67
2022-07-27T05:23:52.582Z,18.63
2022-07-27T05:26:19.414Z,18.59
2022-07-27T05:28:46.297Z,18.56
2022-07-27T05:31:13.162Z,18.55
2022-07-27T05:33:41.332Z,18.57
2022-07-27T05:36:13.805Z,18.56
2022-07-27T05:38:40.849Z,18.57
2022-07-27T05:41:08.266Z,18.60
2022-07-27T05:43:35.590Z,18.58
2022-07-27T05:46:02.925Z,18.57
2022-07-27T05:48:29.883Z,18.57
2022-07-27T05:50:56.917Z,18.58
2022-07-27T05:53:23.777Z,18.58
2022-07-27T05:55:59.111Z,18.61
2022-07-27T05:58:28.168Z,18.66
2022-07-27T06:00:56.798Z,18.69
2022-07-27T06:03:24.605Z,18.71
2022-07-27T06:05:52.268Z,18.76
2022-07-27T06:08:19.129Z,18.79
2022-07-27T06:10:46.290Z,18.83
2022-07-27T06:13:14.103Z,18.89
2022-07-27T06:15:41.344Z,18.95
2022-07-27T06:18:18.709Z,19.01
2022-07-27T06:20:47.077Z,19.07
2022-07-27T06:23:14.002Z,19.09
2022-07-27T06:25:40.791Z,19.11
2022-07-27T06:28:17.256Z,19.12
2022-07-27T06:30:44.078Z,19.13
2022-07-27T06:33:10.973Z,19.13
2022-07-27T06:35:39.182Z,19.15
2022-07-27T06:38:18.662Z,19.18
2022-07-27T06:40:45.581Z,19.19
2022-07-27T06:43:13.416Z,19.22
2022-07-27T06:45:40.461Z,19.25
2022-07-27T06:48:19.650Z,19.27
2022-07-27T06:50:46.693Z,19.31
2022-07-27T06:53:18.961Z,19.35
2022-07-27T06:55:48.011Z,19.40
2022-07-27T06:58:21.911Z,19.39
2022-07-27T07:00:48.875Z,19.40
2022-07-27T07:03:16.491Z,19.42
2022-07-27T07:05:47.007Z,19.43
2022-07-27T07:08:20.125Z,19.43
2022-07-27T07:10:47.483Z,19.45
2022-07-27T07:13:14.982Z,19.47
2022-07-27T07:15:43.809Z,19.51
2022-07-27T07:18:19.626Z,19.51
2022-07-27T07:20:46.532Z,19.49
2022-07-27T07:23:13.621Z,19.54
2022-07-27T07:25:41.320Z,19.58
2022-07-27T07:28:25.930Z,19.60
2022-07-27T07:30:52.938Z,19.64
2022-07-27T07:33:20.144Z,19.64
2022-07-27T07:36:13.498Z,19.65
2022-07-27T07:38:34.713Z,19.66
2022-07-27T07:41:01.657Z,19.68
2022-07-27T07:43:29.674Z,19.74
2022-07-27T07:45:57.621Z,19.78
2022-07-27T07:48:29.862Z,19.84
2022-07-27T07:50:57.461Z,19.92
2022-07-27T07:53:24.917Z,19.97
2022-07-27T07:55:53.846Z,20.01
2022-07-27T07:58:23.597Z,20.04
2022-07-27T08:00:50.861Z,20.04
2022-07-27T08:03:19.101Z,20.06
2022-07-27T08:05:46.420Z,20.07
2022-07-27T08:08:24.877Z,20.07
2022-07-27T08:10:52.283Z,20.07
2022-07-27T08:13:22.179Z,20.08
2022-07-27T08:15:51.505Z,20.07
2022-07-27T08:18:22.631Z,20.07
2022-07-27T08:20:50.033Z,20.07
2022-07-27T08:23:16.951Z,20.05
2022-07-27T08:25:43.879Z,20.07
2022-07-27T08:28:24.016Z,20.12
2022-07-27T08:30:50.964Z,20.14
2022-07-27T08:33:18.082Z,20.20
2022-07-27T08:35:46.264Z,20.20
2022-07-27T08:38:21.470Z,20.24
2022-07-27T08:40:50.594Z,20.31
2022-07-27T08:43:24.726Z,20.37
2022-07-27T08:46:01.583Z,20.46
2022-07-27T08:48:31.554Z,20.53
2022-07-27T08:50:59.186Z,20.61
2022-07-27T08:53:26.592Z,20.66
2022-07-27T08:56:13.679Z,20.74
2022-07-27T08:58:40.789Z,20.77
2022-07-27T09:01:07.991Z,20.80
2022-07-27T09:03:35.332Z,20.84
2022-07-27T09:06:02.279Z,20.88
2022-07-27T09:08:30.903Z,20.92
2022-07-27T09:10:59.989Z,20.95
2022-07-27T09:13:34.961Z,21.00
2022-07-27T09:16:24.248Z,21.04
2022-07-27T09:19:10.975Z,21.10
2022-07-27T09:21:38.413Z,21.21
2022-07-27T09:24:43.930Z,21.21
2022-07-27T09:27:06.037Z,21.19
2022-07-27T09:29:37.117Z,21.12
2022-07-27T09:32:16.171Z,21.06
2022-07-27T09:34:43.865Z,21.02
2022-07-27T09:37:11.430Z,21.00
2022-07-27T09:39:39.484Z,20.95
2022-07-27T09:42:08.281Z,20.91
2022-07-27T09:44:44.880Z,20.85
2022-07-27T09:47:27.250Z,20.83
2022-07-27T09:50:17.761Z,20.80
2022-07-27T09:52:45.805Z,20.80
2022-07-27T09:55:13.448Z,20.80
2022-07-27T09:57:59.242Z,20.81
2022-07-27T10:00:27.546Z,20.83
2022-07-27T10:02:56.828Z,20.81
2022-07-27T10:05:24.356Z,20.84
2022-07-27T10:07:53.991Z,20.83
2022-07-27T10:10:22.520Z,20.84
2022-07-27T10:12:54.711Z,20.85
2022-07-27T10:15:25.598Z,20.86
2022-07-27T10:18:07.156Z,20.91
2022-07-27T10:20:38.704Z,20.95
2022-07-27T10:23:07.390Z,20.96
2022-07-27T10:25:38.211Z,20.98
2022-07-27T10:28:22.634Z,21.01
2022-07-27T10:30:54.268Z,21.03
2022-07-27T10:33:55.303Z,21.07
2022-07-27T10:36:24.937Z,21.09
2022-07-27T10:38:56.662Z,21.08
2022-07-27T10:41:43.986Z,21.11
2022-07-27T10:44:17.807Z,21.14
2022-07-27T10:46:46.915Z,21.18
2022-07-27T10:49:22.894Z,21.21
2022-07-27T10:51:53.691Z,21.23
2022-07-27T10:54:29.420Z,21.26
2022-07-27T10:56:59.362Z,21.30
2022-07-27T11:00:07.355Z,21.33
2022-07-27T11:02:39.657Z,21.34
2022-07-27T11:05:06.781Z,21.35
2022-07-27T11:07:44.305Z,21.38
2022-07-27T11:10:13.255Z,21.41
2022-07-27T11:12:41.589Z,21.43
2022-07-27T11:15:09.496Z,21.46
2022-07-27T11:20:31.608Z,21.55
2022-07-27T11:26:02.745Z,21.56
2022-07-27T11:28:31.995Z,21.57
2022-07-27T11:30:59.892Z,21.54
2022-07-27T11:33:27.701Z,21.51
2022-07-27T11:35:59.540Z,21.49
2022-07-27T11:38:27.235Z,21.48
2022-07-27T11:40:57.055Z,21.45
2022-07-27T11:43:37.061Z,21.42
2022-07-27T11:46:16.788Z,21.40
2022-07-27T11:49:06.798Z,21.40
2022-07-27T11:52:02.177Z,21.43
2022-07-27T11:54:32.784Z,21.39
2022-07-27T11:57:02.252Z,21.38
2022-07-27T11:59:36.609Z,21.37
2022-07-27T12:02:07.538Z,21.39
2022-07-27T12:04:36.569Z,21.39
2022-07-27T12:07:15.982Z,21.41
2022-07-27T12:09:48.915Z,21.40
2022-07-27T12:12:20.477Z,21.40
2022-07-27T12:14:52.030Z,21.41
2022-07-27T12:17:20.475Z,21.43
2022-07-27T12:19:54.488Z,21.43
2022-07-27T12:22:37.064Z,21.45
2022-07-27T12:25:24.573Z,21.43
2022-07-27T12:28:03.306Z,21.47
2022-07-27T12:30:48.275Z,21.51
2022-07-27T12:33:36.518Z,21.52
2022-07-27T12:36:06.762Z,21.52
2022-07-27T12:38:41.653Z,21.50
2022-07-27T12:41:11.015Z,21.51
2022-07-27T12:43:39.467Z,21.51
2022-07-27T12:46:16.300Z,21.52
2022-07-27T12:48:43.814Z,21.52
2022-07-27T12:51:11.476Z,21.51
2022-07-27T12:53:40.547Z,21.50
2022-07-27T12:56:11.738Z,21.51
2022-07-27T12:58:38.619Z,21.52
2022-07-27T13:01:06.591Z,21.54
2022-07-27T13:03:33.679Z,21.52
2022-07-27T13:06:09.254Z,21.49
2022-07-27T13:08:40.228Z,21.48
2022-07-27T13:11:07.751Z,21.44
2022-07-27T13:13:34.926Z,21.42
2022-07-27T13:16:02.081Z,21.43
2022-07-27T13:18:32.041Z,21.41
2022-07-27T13:20:59.360Z,21.41
2022-07-27T13:23:27.017Z,21.40
2022-07-27T13:25:54.565Z,21.42
2022-07-27T13:28:29.506Z,21.40
2022-07-27T13:30:57.354Z,21.38
2022-07-27T13:33:24.870Z,21.38
2022-07-27T13:35:59.097Z,21.36
2022-07-27T13:38:30.714Z,21.35
2022-07-27T13:40:57.678Z,21.36
2022-07-27T13:43:24.973Z,21.36
2022-07-27T13:45:52.227Z,21.32
2022-07-27T13:48:26.641Z,21.30
2022-07-27T13:50:53.611Z,21.29
2022-07-27T13:53:21.298Z,21.30
2022-07-27T13:55:48.841Z,21.30
2022-07-27T13:58:20.757Z,21.30
2022-07-27T14:00:50.216Z,21.30
2022-07-27T14:03:17.674Z,21.31
2022-07-27T14:05:49.554Z,21.31
2022-07-27T14:08:23.779Z,21.33
2022-07-27T14:10:51.276Z,21.35
2022-07-27T14:13:18.926Z,21.35
2022-07-27T14:15:50.601Z,21.34
2022-07-27T14:18:32.083Z,21.35
2022-07-27T14:21:02.614Z,21.33
2022-07-27T14:23:30.406Z,21.34
2022-07-27T14:26:01.627Z,21.34
2022-07-27T14:28:32.628Z,21.35
2022-07-27T14:31:00.991Z,21.38
2022-07-27T14:33:32.021Z,21.36
2022-07-27T14:36:05.311Z,21.38
2022-07-27T14:38:32.251Z,21.38
2022-07-27T14:41:01.215Z,21.38
2022-07-27T14:43:29.441Z,21.39
2022-07-27T14:45:57.163Z,21.38
2022-07-27T14:48:42.620Z,21.39
2022-07-27T14:51:13.128Z,21.41
2022-07-27T14:53:40.091Z,21.44
2022-07-27T14:56:07.324Z,21.43
2022-07-27T14:58:34.297Z,21.45
2022-07-27T15:01:02.381Z,21.45
2022-07-27T15:03:29.552Z,21.43
2022-07-27T15:05:56.793Z,21.44
2022-07-27T15:08:24.837Z,21.44
2022-07-27T15:10:51.933Z,21.43
2022-07-27T15:13:19.186Z,21.43
2022-07-27T15:15:49.022Z,21.43
2022-07-27T15:18:19.939Z,21.43
2022-07-27T15:20:50.162Z,21.44
2022-07-27T15:23:17.034Z,21.44
2022-07-27T15:25:44.481Z,21.45
2022-07-27T15:28:17.344Z,21.48
2022-07-27T15:30:44.934Z,21.47
2022-07-27T15:33:12.020Z,21.49
2022-07-27T15:35:41.518Z,21.50
2022-07-27T15:38:18.885Z,21.52
2022-07-27T15:40:45.946Z,21.53
2022-07-27T15:43:15.483Z,21.52
2022-07-27T15:45:45.751Z,21.53
2022-07-27T15:48:22.798Z,21.52
2022-07-27T15:50:52.845Z,21.54
2022-07-27T15:53:23.053Z,21.55
2022-07-27T15:55:52.018Z,21.57
2022-07-27T15:58:19.759Z,21.59
2022-07-27T16:00:48.519Z,21.61
2022-07-27T16:03:16.185Z,21.60
2022-07-27T16:05:44.643Z,21.61
2022-07-27T16:08:17.542Z,21.61
2022-07-27T16:10:46.204Z,21.64
2022-07-27T16:13:13.925Z,21.63
2022-07-27T16:16:00.965Z,21.61
2022-07-27T16:18:28.443Z,21.59
2022-07-27T16:20:56.214Z,21.56
2022-07-27T16:23:23.519Z,21.57
2022-07-27T16:26:06.119Z,21.57
2022-07-27T16:28:36.810Z,21.58
2022-07-27T16:31:05.828Z,21.55
2022-07-27T16:33:32.861Z,21.53
2022-07-27T16:36:00.362Z,21.53
2022-07-27T16:38:27.473Z,21.52
2022-07-27T16:40:54.399Z,21.51
2022-07-27T16:43:21.383Z,21.51
2022-07-27T16:45:48.360Z,21.48
2022-07-27T16:48:16.906Z,21.46
2022-07-27T16:50:43.802Z,21.46
2022-07-27T16:53:11.408Z,21.45
2022-07-27T16:55:38.362Z,21.46
2022-07-27T16:58:12.974Z,21.45
2022-07-27T17:00:40.092Z,21.47
2022-07-27T17:03:07.045Z,21.44
2022-07-27T17:05:34.441Z,21.43
2022-07-27T17:08:01.538Z,21.41
2022-07-27T17:10:28.525Z,21.42
2022-07-27T17:12:57.964Z,21.42
2022-07-27T17:15:29.573Z,21.41
2022-07-27T17:17:56.565Z,21.42
2022-07-27T17:20:32.817Z,21.42
2022-07-27T17:23:03.931Z,21.42
2022-07-27T17:25:30.964Z,21.41
2022-07-27T17:27:58.444Z,21.39
2022-07-27T17:30:25.386Z,21.39
2022-07-27T17:32:53.532Z,21.37
2022-07-27T17:35:20.753Z,21.37
2022-07-27T17:38:05.577Z,21.34
2022-07-27T17:40:34.303Z,21.34
2022-07-27T17:43:01.425Z,21.35
2022-07-27T17:45:28.377Z,21.36
2022-07-27T17:47:55.798Z,21.36
2022-07-27T17:50:22.989Z,21.36
2022-07-27T17:52:50.306Z,21.36
2022-07-27T17:55:17.766Z,21.34
2022-07-27T17:57:45.468Z,21.34
2022-07-27T18:00:13.102Z,21.32
2022-07-27T18:02:40.416Z,21.32
2022-07-27T18:05:07.747Z,21.32
2022-07-27T18:07:39.024Z,21.32
2022-07-27T18:10:09.000Z,21.32
2022-07-27T18:12:37.054Z,21.31
2022-07-27T18:15:23.669Z,21.30
2022-07-27T18:17:50.891Z,21.29
2022-07-27T18:20:17.977Z,21.29
2022-07-27T18:22:45.291Z,21.28
2022-07-27T18:25:12.926Z,21.28
2022-07-27T18:27:40.886Z,21.29
2022-07-27T18:30:08.609Z,21.28
2022-07-27T18:32:36.242Z,21.29
2022-07-27T18:35:03.456Z,21.27
2022-07-27T18:37:30.790Z,21.24
2022-07-27T18:39:57.864Z,21.25
2022-07-27T18:42:24.944Z,21.24
2022-07-27T18:44:52.415Z,21.24
2022-07-27T18:47:20.015Z,21.26
2022-07-27T18:49:49.800Z,21.24
2022-07-27T18:52:16.866Z,21.22
2022-07-27T18:54:43.924Z,21.20
2022-07-27T18:57:11.199Z,21.19
2022-07-27T18:59:41.070Z,21.18
2022-07-27T19:02:08.666Z,21.18
2022-07-27T19:04:39.234Z,21.18
2022-07-27T19:07:09.589Z,21.16
2022-07-27T19:09:36.732Z,21.18
2022-07-27T19:12:09.183Z,21.16
2022-07-27T19:14:37.266Z,21.16
2022-07-27T19:17:04.677Z,21.16
2022-07-27T19:19:32.131Z,21.15
2022-07-27T19:21:59.394Z,21.14
2022-07-27T19:24:27.031Z,21.12
2022-07-27T19:26:54.382Z,21.12
2022-07-27T19:29:23.008Z,21.13
2022-07-27T19:31:50.304Z,21.12
2022-07-27T19:34:18.340Z,21.11
2022-07-27T19:36:45.864Z,21.12
2022-07-27T19:39:13.147Z,21.11
2022-07-27T19:41:40.811Z,21.08
2022-07-27T19:44:09.050Z,21.07
2022-07-27T19:46:36.837Z,21.05
2022-07-27T19:49:04.202Z,21.03
2022-07-27T19:51:31.379Z,20.99
2022-07-27T19:53:58.972Z,20.99
2022-07-27T19:56:26.193Z,20.97
2022-07-27T19:58:53.249Z,20.95
2022-07-27T20:01:20.344Z,20.93
2022-07-27T20:03:54.259Z,20.91
2022-07-27T20:06:25.811Z,20.89
2022-07-27T20:08:56.251Z,20.89
2022-07-27T20:11:23.259Z,20.86
2022-07-27T20:13:50.140Z,20.83
2022-07-27T20:16:18.130Z,20.83
2022-07-27T20:18:45.402Z,20.81
2022-07-27T20:21:22.327Z,20.78
2022-07-27T20:23:52.152Z,20.77
2022-07-27T20:26:20.054Z,20.75
2022-07-27T20:28:49.391Z,20.74
2022-07-27T20:31:16.409Z,20.73
2022-07-27T20:33:43.365Z,20.70
2022-07-27T20:36:10.145Z,20.69
2022-07-27T20:38:36.967Z,20.67
2022-07-27T20:41:03.943Z,20.65
2022-07-27T20:43:31.984Z,20.64
2022-07-27T20:45:59.126Z,20.63
2022-07-27T20:48:26.050Z,20.58
2022-07-27T20:50:52.883Z,20.55
2022-07-27T20:53:22.802Z,20.55
2022-07-27T20:55:49.652Z,20.52
2022-07-27T20:58:16.596Z,20.52
2022-07-27T21:00:43.483Z,20.50
2022-07-27T21:03:10.406Z,20.49
2022-07-27T21:05:37.237Z,20.47
2022-07-27T21:08:11.550Z,20.44
2022-07-27T21:10:38.899Z,20.42
2022-07-27T21:13:05.821Z,20.39
2022-07-27T21:15:34.129Z,20.39
2022-07-27T21:18:01.880Z,20.39
2022-07-27T21:20:29.275Z,20.39
2022-07-27T21:23:14.922Z,20.34
2022-07-27T21:25:41.932Z,20.34
2022-07-27T21:28:17.025Z,20.31
2022-07-27T21:30:45.769Z,20.27
2022-07-27T21:33:12.610Z,20.27
2022-07-27T21:35:39.531Z,20.25
2022-07-27T21:38:13.190Z,20.23
2022-07-27T21:40:40.008Z,20.20
2022-07-27T21:43:06.830Z,20.20
2022-07-27T21:45:33.721Z,20.20
2022-07-27T21:48:00.699Z,20.20
2022-07-27T21:50:27.712Z,20.21
2022-07-27T21:52:54.633Z,20.22
2022-07-27T21:55:22.902Z,20.19
2022-07-27T21:57:50.764Z,20.19
2022-07-27T22:00:24.116Z,20.17
2022-07-27T22:02:52.520Z,20.15
2022-07-27T22:05:19.438Z,20.15
2022-07-27T22:07:46.261Z,20.13
2022-07-27T22:10:13.223Z,20.10
2022-07-27T22:12:40.192Z,20.08
2022-07-27T22:15:07.738Z,20.04
2022-07-27T22:17:34.579Z,20.03
2022-07-27T22:20:01.609Z,20.02
2022-07-27T22:22:28.464Z,20.02
2022-07-27T22:24:55.355Z,20.00
2022-07-27T22:27:22.288Z,20.00
2022-07-27T22:29:49.275Z,19.98
2022-07-27T22:32:16.322Z,19.97
2022-07-27T22:34:43.206Z,19.98
2022-07-27T22:37:10.087Z,19.98
2022-07-27T22:39:41.785Z,19.98
2022-07-27T22:42:10.177Z,19.97
2022-07-27T22:44:38.300Z,19.98
2022-07-27T22:47:05.917Z,19.96
2022-07-27T22:49:36.917Z,19.92
2022-07-27T22:52:07.391Z,19.89
2022-07-27T22:54:36.827Z,19.83
2022-07-27T22:57:07.574Z,19.84
2022-07-27T22:59:35.280Z,19.84
2022-07-27T23:02:02.532Z,19.85
2022-07-27T23:04:30.022Z,19.84
2022-07-27T23:06:58.170Z,19.82
2022-07-27T23:09:25.137Z,19.81
2022-07-27T23:11:52.818Z,19.80
2022-07-27T23:14:19.736Z,19.76
2022-07-27T23:16:46.629Z,19.74
2022-07-27T23:19:13.597Z,19.72
2022-07-27T23:21:42.100Z,19.69
2022-07-27T23:24:11.126Z,19.68
2022-07-27T23:26:39.167Z,19.66
2022-07-27T23:29:06.001Z,19.63
2022-07-27T23:31:33.046Z,19.63
2022-07-27T23:33:59.999Z,19.64
2022-07-27T23:36:27.334Z,19.61
2022-07-27T23:38:54.154Z,19.60
2022-07-27T23:41:21.072Z,19.60
2022-07-27T23:43:47.865Z,19.58
2022-07-27T23:46:14.796Z,19.57
2022-07-27T23:48:41.907Z,19.58
2022-07-27T23:51:09.395Z,19.58
2022-07-27T23:53:37.036Z,19.57
2022-07-27T23:56:03.999Z,19.55
2022-07-27T23:58:30.907Z,19.51
